createdAt,value
2024-05-09T00:02:57.549Z,663.00
2024-05-09T00:07:29.616Z,663.00
2024-05-09T00:08:02.669Z,679.00
2024-05-09T00:10:39.343Z,663.00
2024-05-09T00:11:07.027Z,670.00
2024-05-09T00:12:07.066Z,755.00
2024-05-09T00:13:07.498Z,857.00
2024-05-09T00:14:07.044Z,944.00
2024-05-09T00:15:06.966Z,1005.00
2024-05-09T00:16:06.967Z,981.00
2024-05-09T00:17:07.023Z,908.00
2024-05-09T00:18:07.946Z,835.00
2024-05-09T00:19:07.023Z,785.00
2024-05-09T00:20:14.316Z,714.00
2024-05-09T00:21:08.062Z,715.00
2024-05-09T00:22:06.989Z,677.00
2024-05-09T00:23:07.606Z,662.00
2024-05-09T00:24:06.984Z,653.00
2024-05-09T00:25:07.001Z,653.00
2024-05-09T00:26:07.054Z,647.00
2024-05-09T00:27:07.948Z,642.00
2024-05-09T00:28:07.000Z,646.00
2024-05-09T00:29:07.061Z,647.00
2024-05-09T00:31:38.373Z,641.00
2024-05-09T00:32:11.436Z,644.00
2024-05-09T00:33:11.940Z,660.00
2024-05-09T00:37:51.487Z,641.00
2024-05-09T00:38:24.469Z,648.00
2024-05-09T00:44:11.414Z,641.00
2024-05-09T00:44:42.055Z,651.00
2024-05-09T00:45:42.074Z,756.00
2024-05-09T00:46:42.130Z,898.00
2024-05-09T00:47:42.291Z,1023.00
2024-05-09T00:59:50.284Z,641.00
2024-05-09T01:00:31.363Z,657.00
2024-05-09T01:01:26.785Z,679.00
2024-05-09T01:02:25.735Z,842.00
2024-05-09T01:03:25.927Z,1009.00
2024-05-09T01:09:10.114Z,641.00
2024-05-09T01:09:43.092Z,650.00
2024-05-09T01:10:45.225Z,754.00
2024-05-09T01:11:43.207Z,657.00
2024-05-09T01:12:43.096Z,739.00
2024-05-09T01:13:43.176Z,852.00
2024-05-09T01:31:39.585Z,641.00
2024-05-09T01:32:12.656Z,658.00
2024-05-09T01:33:13.343Z,865.00
2024-05-09T01:34:12.528Z,1148.00
2024-05-09T01:35:12.523Z,1413.00
2024-05-09T01:36:12.504Z,1651.00
2024-05-09T01:37:12.515Z,1648.00
2024-05-09T01:38:12.570Z,1464.00
2024-05-09T01:39:12.517Z,1325.00
2024-05-09T01:43:52.662Z,1211.00
2024-05-09T01:44:25.634Z,1225.00
2024-05-09T01:45:25.551Z,1286.00
2024-05-09T01:46:25.549Z,1326.00
2024-05-09T01:51:05.773Z,1211.00
2024-05-09T02:07:13.280Z,1211.00
2024-05-09T02:07:46.294Z,1248.00
2024-05-09T02:08:46.279Z,1430.00
2024-05-09T02:09:46.265Z,1621.00
2024-05-09T02:10:46.526Z,1753.00
2024-05-09T02:11:46.443Z,1808.00
2024-05-09T02:12:46.274Z,1688.00
2024-05-09T02:13:46.306Z,1514.00
2024-05-09T02:14:46.286Z,1369.00
2024-05-09T02:15:46.292Z,1268.00
2024-05-09T02:16:46.318Z,1172.00
2024-05-09T02:17:46.490Z,1108.00
2024-05-09T02:18:46.407Z,1062.00
2024-05-09T02:19:46.315Z,1016.00
2024-05-09T02:20:46.322Z,967.00
2024-05-09T02:21:46.308Z,936.00
2024-05-09T02:22:46.351Z,913.00
2024-05-09T02:23:46.319Z,886.00
2024-05-09T02:24:46.299Z,869.00
2024-05-09T02:25:46.333Z,852.00
2024-05-09T02:26:46.311Z,816.00
2024-05-09T02:27:46.359Z,792.00
2024-05-09T02:30:22.918Z,765.00
2024-05-09T02:30:51.665Z,771.00
2024-05-09T02:31:50.792Z,805.00
2024-05-09T02:35:26.612Z,765.00
2024-05-09T02:35:59.380Z,778.00
2024-05-09T02:36:59.422Z,840.00
2024-05-09T02:37:59.691Z,899.00
2024-05-09T02:44:48.176Z,765.00
2024-05-09T02:45:21.244Z,787.00
2024-05-09T02:46:21.179Z,908.00
2024-05-09T02:47:21.497Z,1036.00
2024-05-09T02:52:07.659Z,765.00
2024-05-09T02:52:40.611Z,785.00
2024-05-09T02:53:40.634Z,893.00
2024-05-09T02:54:40.690Z,1010.00
2024-05-09T02:55:40.636Z,1118.00
2024-05-09T03:01:25.269Z,765.00
2024-05-09T03:01:58.082Z,786.00
2024-05-09T03:02:58.161Z,899.00
2024-05-09T03:03:58.209Z,1025.00
2024-05-09T03:04:58.295Z,1144.00
2024-05-09T03:05:58.021Z,1236.00
2024-05-09T03:06:58.008Z,1219.00
2024-05-09T03:07:58.070Z,1128.00
2024-05-09T03:08:58.023Z,1072.00
2024-05-09T03:09:58.022Z,1014.00
2024-05-09T03:10:58.052Z,969.00
2024-05-09T03:11:58.183Z,936.00
2024-05-09T03:12:58.002Z,926.00
2024-05-09T03:20:11.631Z,884.00
2024-05-09T03:20:40.251Z,901.00
2024-05-09T03:21:38.834Z,1006.00
2024-05-09T03:22:38.815Z,1111.00
2024-05-09T03:23:38.941Z,1180.00
2024-05-09T03:24:38.830Z,1211.00
2024-05-09T03:25:39.057Z,1146.00
2024-05-09T03:26:38.901Z,1051.00
2024-05-09T03:27:38.823Z,959.00
2024-05-09T03:30:10.202Z,908.00
2024-05-09T03:30:43.559Z,915.00
2024-05-09T03:31:43.247Z,946.00
2024-05-09T03:32:43.275Z,971.00
2024-05-09T03:33:43.305Z,975.00
2024-05-09T03:34:43.181Z,957.00
2024-05-09T03:38:21.461Z,919.00
2024-05-09T03:38:52.098Z,930.00
2024-05-09T03:39:52.113Z,983.00
2024-05-09T03:40:52.236Z,1029.00
2024-05-09T03:42:19.223Z,1059.00
2024-05-09T03:42:52.228Z,923.00
2024-05-09T03:43:52.277Z,941.00
2024-05-09T03:44:52.240Z,950.00
2024-05-09T03:45:52.247Z,944.00
2024-05-09T03:46:52.263Z,916.00
2024-05-09T03:47:52.650Z,889.00
2024-05-09T03:48:52.284Z,855.00
2024-05-09T03:49:52.250Z,836.00
2024-05-09T03:50:52.358Z,814.00
2024-05-09T03:51:52.236Z,813.00
2024-05-09T03:52:52.262Z,793.00
2024-05-09T03:53:52.244Z,778.00
2024-05-09T03:54:52.249Z,804.00
2024-05-09T03:55:52.272Z,892.00
2024-05-09T03:56:52.350Z,1007.00
2024-05-09T03:57:52.243Z,1020.00
2024-05-09T03:58:52.302Z,975.00
2024-05-09T03:59:52.244Z,935.00
2024-05-09T04:00:53.226Z,911.00
2024-05-09T04:01:52.392Z,873.00
2024-05-09T04:02:52.359Z,857.00
2024-05-09T04:03:52.366Z,841.00
2024-05-09T04:04:52.371Z,840.00
2024-05-09T04:05:52.275Z,823.00
2024-05-09T04:06:52.278Z,823.00
2024-05-09T04:07:52.297Z,798.00
2024-05-09T04:08:52.276Z,780.00
2024-05-09T04:09:52.254Z,769.00
2024-05-09T04:10:52.280Z,741.00
2024-05-09T04:11:52.544Z,731.00
2024-05-09T04:12:52.283Z,728.00
2024-05-09T04:13:52.313Z,722.00
2024-05-09T04:14:52.289Z,704.00
2024-05-09T04:15:52.275Z,698.00
2024-05-09T04:16:52.327Z,690.00
2024-05-09T04:17:52.558Z,676.00
2024-05-09T04:18:52.336Z,671.00
2024-05-09T04:19:52.293Z,671.00
2024-05-09T04:20:52.325Z,665.00
2024-05-09T04:23:26.571Z,660.00
2024-05-09T04:23:56.683Z,662.00
2024-05-09T04:24:56.663Z,690.00
2024-05-09T04:27:28.033Z,660.00
2024-05-09T04:28:01.087Z,663.00
2024-05-09T04:29:01.092Z,707.00
2024-05-09T04:30:01.031Z,756.00
2024-05-09T04:31:01.035Z,800.00
2024-05-09T04:32:01.098Z,834.00
2024-05-09T04:33:01.140Z,831.00
2024-05-09T04:34:01.111Z,795.00
2024-05-09T04:35:01.063Z,762.00
2024-05-09T04:36:01.043Z,759.00
2024-05-09T04:37:01.026Z,744.00
2024-05-09T04:38:08.326Z,600.00
2024-05-09T04:39:08.293Z,600.00
2024-05-09T04:41:39.702Z,600.00
2024-05-09T04:52:46.576Z,600.00
2024-05-09T04:53:19.657Z,600.00
2024-05-09T04:55:19.497Z,600.00
2024-05-09T04:56:19.567Z,600.00
2024-05-09T04:57:19.510Z,600.00
2024-05-09T04:58:19.513Z,600.00
2024-05-09T04:59:19.538Z,600.00
2024-05-09T05:00:28.584Z,593.00
2024-05-09T05:01:20.557Z,575.00
2024-05-09T05:23:09.244Z,593.00
2024-05-09T05:23:42.285Z,609.00
2024-05-09T05:24:42.180Z,719.00
2024-05-09T05:25:42.182Z,918.00
2024-05-09T05:26:42.255Z,1098.00
2024-05-09T05:27:42.180Z,1208.00
2024-05-09T05:28:42.178Z,1124.00
2024-05-09T05:29:42.240Z,935.00
2024-05-09T05:30:42.186Z,789.00
2024-05-09T05:33:13.794Z,684.00
2024-05-09T05:33:46.632Z,691.00
2024-05-09T05:34:46.557Z,715.00
2024-05-09T05:35:46.526Z,714.00
2024-05-09T05:36:46.536Z,668.00
2024-05-09T05:37:46.552Z,624.00
2024-05-09T05:38:46.634Z,605.00
2024-05-09T05:41:17.930Z,600.00
2024-05-09T05:41:50.883Z,602.00
2024-05-09T05:42:50.884Z,614.00
2024-05-09T05:43:50.955Z,622.00
2024-05-09T05:44:50.895Z,618.00
2024-05-09T05:45:50.889Z,605.00
2024-05-09T05:46:50.971Z,601.00
2024-05-09T05:47:51.091Z,600.00
2024-05-09T05:48:50.988Z,601.00
2024-05-09T05:49:50.955Z,602.00
2024-05-09T05:50:50.979Z,601.00
2024-05-09T05:51:50.884Z,600.00
2024-05-09T05:52:50.963Z,600.00
2024-05-09T05:53:50.913Z,600.00
2024-05-09T05:58:30.973Z,605.00
2024-05-09T05:59:03.998Z,611.00
2024-05-09T06:00:07.082Z,642.00
2024-05-09T06:01:04.972Z,614.00
2024-05-09T06:02:04.080Z,633.00
2024-05-09T06:03:04.064Z,650.00
2024-05-09T06:05:35.439Z,605.00
2024-05-09T06:06:08.322Z,609.00
2024-05-09T06:07:08.296Z,627.00
2024-05-09T06:08:08.475Z,645.00
2024-05-09T06:09:08.317Z,655.00
2024-05-09T06:10:17.008Z,659.00
2024-05-09T06:11:09.379Z,607.00
2024-05-09T06:12:08.449Z,611.00
2024-05-09T06:13:08.302Z,613.00
2024-05-09T06:14:08.352Z,613.00
2024-05-09T06:16:39.689Z,605.00
2024-05-09T06:17:12.756Z,608.00
2024-05-09T06:18:13.106Z,623.00
2024-05-09T06:32:34.411Z,605.00
2024-05-09T06:33:05.568Z,619.00
2024-05-09T06:34:05.226Z,724.00
2024-05-09T06:35:05.192Z,925.00
2024-05-09T06:37:36.574Z,605.00
2024-05-09T06:38:09.916Z,612.00
2024-05-09T06:42:49.627Z,605.00
2024-05-09T06:43:22.606Z,614.00
2024-05-09T06:44:22.712Z,659.00
2024-05-09T06:45:22.607Z,772.00
2024-05-09T06:56:31.426Z,605.00
2024-05-09T06:57:01.774Z,615.00
2024-05-09T06:58:01.796Z,697.00
2024-05-09T06:59:01.832Z,886.00
2024-05-09T07:00:01.779Z,1035.00
2024-05-09T07:01:01.799Z,1146.00
2024-05-09T07:02:01.798Z,1103.00
2024-05-09T07:03:05.359Z,946.00
2024-05-09T07:04:01.899Z,856.00
2024-05-09T07:05:02.009Z,760.00
2024-05-09T07:06:01.921Z,663.00
2024-05-09T07:07:01.784Z,627.00
2024-05-09T07:08:01.812Z,603.00
2024-05-09T07:09:01.804Z,600.00
2024-05-09T07:10:01.789Z,598.00
2024-05-09T07:12:34.287Z,599.00
2024-05-09T07:13:06.211Z,602.00
2024-05-09T07:14:06.273Z,617.00
2024-05-09T07:15:06.134Z,630.00
2024-05-09T07:16:06.145Z,640.00
2024-05-09T07:17:06.316Z,637.00
2024-05-09T07:18:06.226Z,627.00
2024-05-09T07:22:46.576Z,608.00
2024-05-09T07:23:19.407Z,614.00
2024-05-09T07:24:19.204Z,643.00
2024-05-09T07:25:19.204Z,673.00
2024-05-09T07:31:03.617Z,608.00
2024-05-09T07:31:36.609Z,616.00
2024-05-09T07:32:36.803Z,657.00
2024-05-09T07:50:34.113Z,619.00
2024-05-09T07:52:23.559Z,633.00
2024-05-09T07:53:33.166Z,622.00
2024-05-09T07:53:41.932Z,619.00
2024-05-09T07:54:34.368Z,618.00
2024-05-09T07:57:17.379Z,608.00
2024-05-09T07:57:50.325Z,613.00
2024-05-09T07:58:50.245Z,642.00
2024-05-09T07:59:50.196Z,674.00
2024-05-09T08:01:20.210Z,725.00
2024-05-09T08:01:50.262Z,610.00
2024-05-09T08:02:50.291Z,623.00
2024-05-09T08:20:30.364Z,608.00
2024-05-09T08:20:56.480Z,619.00
2024-05-09T08:21:55.535Z,734.00
2024-05-09T08:22:55.469Z,957.00
2024-05-09T08:23:55.477Z,1171.00
2024-05-09T08:24:55.483Z,1342.00
2024-05-09T08:25:55.485Z,1308.00
2024-05-09T08:26:55.472Z,1137.00
2024-05-09T08:27:55.538Z,979.00
2024-05-09T08:28:55.492Z,856.00
2024-05-09T08:29:55.513Z,748.00
2024-05-09T08:30:55.603Z,679.00
2024-05-09T08:31:55.484Z,645.00
2024-05-09T08:35:31.287Z,627.00
2024-05-09T08:36:04.207Z,631.00
2024-05-09T08:44:10.773Z,627.00
2024-05-09T08:44:43.694Z,636.00
2024-05-09T08:45:45.566Z,647.00
2024-05-09T08:46:43.630Z,713.00
2024-05-09T08:47:43.822Z,779.00
2024-05-09T08:50:28.741Z,627.00
2024-05-09T08:50:49.137Z,630.00
2024-05-09T08:51:48.074Z,649.00
2024-05-09T08:52:48.005Z,664.00
2024-05-09T08:53:48.006Z,670.00
2024-05-09T08:54:48.063Z,662.00
2024-05-09T09:00:36.938Z,635.00
2024-05-09T09:01:06.534Z,640.00
2024-05-09T09:02:05.545Z,668.00
2024-05-09T09:03:05.533Z,719.00
2024-05-09T09:04:32.547Z,741.00
2024-05-09T09:05:05.502Z,637.00
2024-05-09T09:06:05.503Z,644.00
2024-05-09T09:07:05.461Z,644.00
2024-05-09T09:08:05.452Z,611.00
2024-05-09T09:09:05.442Z,576.00
2024-05-09T09:10:07.053Z,554.00
2024-05-09T09:11:15.689Z,600.00
2024-05-09T09:12:15.674Z,600.00
2024-05-09T09:13:15.950Z,600.00
2024-05-09T09:14:15.684Z,600.00
2024-05-09T09:15:15.679Z,600.00
2024-05-09T09:16:15.673Z,601.00
2024-05-09T09:17:15.769Z,602.00
2024-05-09T09:18:16.028Z,607.00
2024-05-09T09:19:45.249Z,600.00
2024-05-09T09:27:09.300Z,600.00
2024-05-09T09:27:42.023Z,607.00
2024-05-09T09:28:41.992Z,645.00
2024-05-09T09:29:41.986Z,706.00
2024-05-09T09:30:42.037Z,759.00
2024-05-09T09:31:41.976Z,788.00
2024-05-09T09:32:42.058Z,708.00
2024-05-09T09:33:42.074Z,643.00
2024-05-09T09:39:26.410Z,611.00
2024-05-09T09:39:59.411Z,616.00
2024-05-09T09:45:44.178Z,611.00
2024-05-09T09:46:16.936Z,618.00
2024-05-09T09:47:16.816Z,656.00
2024-05-09T09:48:16.947Z,726.00
2024-05-09T09:49:17.037Z,787.00
2024-05-09T09:50:20.872Z,797.00
2024-05-09T09:51:17.785Z,613.00
2024-05-09T09:52:17.061Z,614.00
2024-05-09T09:53:16.856Z,592.00
2024-05-09T09:54:16.799Z,565.00
2024-05-09T10:04:18.675Z,611.00
2024-05-09T10:04:51.674Z,617.00
2024-05-09T10:05:51.609Z,656.00
2024-05-09T10:06:51.644Z,745.00
2024-05-09T10:07:51.590Z,851.00
2024-05-09T10:08:51.600Z,899.00
2024-05-09T10:12:27.464Z,812.00
2024-05-09T10:13:00.651Z,849.00
2024-05-09T10:14:00.284Z,877.00
2024-05-09T10:15:00.285Z,868.00
2024-05-09T10:16:00.349Z,747.00
2024-05-09T10:22:49.045Z,774.00
2024-05-09T10:23:22.061Z,853.00
2024-05-09T10:24:22.055Z,909.00
2024-05-09T10:25:22.238Z,955.00
2024-05-09T10:26:22.053Z,937.00
2024-05-09T10:27:22.040Z,843.00
2024-05-09T10:28:22.079Z,673.00
2024-05-09T10:29:22.044Z,617.00
2024-05-09T10:30:29.599Z,599.00
2024-05-09T10:31:23.100Z,589.00
2024-05-09T10:32:22.147Z,556.00
2024-05-09T10:38:06.490Z,534.00
2024-05-09T10:38:39.458Z,603.00
2024-05-09T10:39:39.616Z,622.00
2024-05-09T10:40:39.551Z,629.00
2024-05-09T10:41:39.465Z,628.00
2024-05-09T10:42:39.500Z,617.00
2024-05-09T10:43:39.451Z,594.00
2024-05-09T10:44:39.459Z,599.00
2024-05-09T10:48:15.637Z,581.00
2024-05-09T10:48:48.804Z,603.00
2024-05-09T10:49:48.301Z,621.00
2024-05-09T10:52:22.073Z,600.00
2024-05-09T10:52:52.690Z,602.00
2024-05-09T10:53:52.757Z,614.00
2024-05-09T10:54:52.822Z,622.00
2024-05-09T10:55:52.793Z,615.00
2024-05-09T10:56:52.838Z,586.00
2024-05-09T10:57:52.998Z,593.00
2024-05-09T10:58:52.964Z,600.00
2024-05-09T10:59:53.009Z,615.00
2024-05-09T11:00:53.162Z,635.00
2024-05-09T11:01:53.196Z,642.00
2024-05-09T11:02:53.028Z,637.00
2024-05-09T11:03:53.278Z,615.00
2024-05-09T11:04:53.275Z,606.00
2024-05-09T11:05:53.310Z,600.00
2024-05-09T11:06:53.195Z,600.00
2024-05-09T11:07:53.181Z,600.00
2024-05-09T11:08:53.244Z,603.00
2024-05-09T11:09:53.329Z,609.00
2024-05-09T11:10:53.540Z,600.00
2024-05-09T11:11:53.430Z,604.00
2024-05-09T11:12:54.514Z,611.00
2024-05-09T11:13:53.532Z,608.00
2024-05-09T11:25:02.321Z,603.00
2024-05-09T11:25:32.701Z,609.00
2024-05-09T11:26:32.688Z,657.00
2024-05-09T11:27:32.741Z,794.00
2024-05-09T11:28:32.739Z,927.00
2024-05-09T11:29:32.716Z,1009.00
2024-05-09T11:30:32.816Z,1012.00
2024-05-09T11:31:33.046Z,882.00
2024-05-09T11:32:33.021Z,828.00
2024-05-09T11:33:32.860Z,749.00
2024-05-09T11:34:32.854Z,669.00
2024-05-09T11:35:32.690Z,641.00
2024-05-09T11:36:32.757Z,627.00
2024-05-09T11:37:34.584Z,615.00
2024-05-09T11:38:32.710Z,597.00
2024-05-09T11:39:32.720Z,574.00
2024-05-09T11:40:34.550Z,566.00
2024-05-09T11:41:32.722Z,565.00
2024-05-09T11:42:32.765Z,552.00
2024-05-09T11:47:12.854Z,516.00
2024-05-09T11:47:45.862Z,618.00
2024-05-09T11:48:45.843Z,636.00
2024-05-09T11:49:45.854Z,652.00
2024-05-09T11:50:45.761Z,658.00
2024-05-09T11:51:45.777Z,666.00
2024-05-09T11:52:45.766Z,655.00
2024-05-09T11:53:45.768Z,601.00
2024-05-09T11:54:45.790Z,598.00
2024-05-09T11:55:45.767Z,600.00
2024-05-09T11:56:45.772Z,600.00
2024-05-09T11:57:45.786Z,603.00
2024-05-09T11:58:45.758Z,600.00
2024-05-09T11:59:45.758Z,602.00
2024-05-09T12:00:46.231Z,600.00
2024-05-09T12:01:45.971Z,600.00
2024-05-09T12:03:12.848Z,600.00
2024-05-09T12:03:45.903Z,600.00
2024-05-09T12:04:45.988Z,605.00
2024-05-09T12:05:46.001Z,609.00
2024-05-09T12:06:45.809Z,609.00
2024-05-09T12:07:45.770Z,606.00
2024-05-09T12:08:45.774Z,603.00
2024-05-09T12:09:45.819Z,597.00
2024-05-09T12:10:46.064Z,602.00
2024-05-09T12:11:45.798Z,605.00
2024-05-09T12:12:45.800Z,612.00
2024-05-09T12:13:45.790Z,606.00
2024-05-09T12:14:45.776Z,618.00
2024-05-09T12:15:45.792Z,608.00
2024-05-09T12:16:45.832Z,609.00
2024-05-09T12:17:47.789Z,615.00
2024-05-09T12:18:45.909Z,608.00
2024-05-09T12:19:45.842Z,595.00
2024-05-09T12:20:45.768Z,582.00
2024-05-09T12:21:45.789Z,590.00
2024-05-09T12:22:45.772Z,578.00
2024-05-09T12:23:45.780Z,596.00
2024-05-09T12:24:45.826Z,600.00
2024-05-09T12:25:45.768Z,610.00
2024-05-09T12:26:45.768Z,630.00
2024-05-09T12:27:45.817Z,650.00
2024-05-09T12:28:45.793Z,664.00
2024-05-09T12:29:45.812Z,661.00
2024-05-09T12:30:45.860Z,641.00
2024-05-09T12:31:45.819Z,655.00
2024-05-09T12:32:45.943Z,692.00
2024-05-09T12:33:45.827Z,684.00
2024-05-09T12:34:45.830Z,666.00
2024-05-09T12:35:48.202Z,653.00
2024-05-09T12:40:34.427Z,619.00
2024-05-09T12:40:59.950Z,656.00
2024-05-09T12:41:58.862Z,694.00
2024-05-09T12:45:34.601Z,653.00
2024-05-09T12:46:07.652Z,657.00
2024-05-09T12:47:07.553Z,695.00
2024-05-09T12:48:08.185Z,748.00
2024-05-09T12:49:07.797Z,787.00
2024-05-09T12:50:10.896Z,780.00
2024-05-09T12:51:08.581Z,655.00
2024-05-09T12:52:07.609Z,660.00
2024-05-09T12:53:07.583Z,655.00
2024-05-09T12:54:07.603Z,618.00
2024-05-09T13:02:01.296Z,516.00
2024-05-09T13:02:33.831Z,657.00
2024-05-09T13:03:33.821Z,719.00
2024-05-09T13:04:34.020Z,800.00
2024-05-09T13:05:33.937Z,870.00
2024-05-09T13:06:33.738Z,940.00
2024-05-09T13:07:33.696Z,957.00
2024-05-09T13:08:33.674Z,808.00
2024-05-09T13:09:33.704Z,710.00
2024-05-09T13:10:33.894Z,695.00
2024-05-09T13:11:33.725Z,683.00
2024-05-09T13:12:33.687Z,646.00
2024-05-09T13:13:33.676Z,619.00
2024-05-09T13:15:03.191Z,599.00
2024-05-09T13:15:33.847Z,600.00
2024-05-09T13:16:34.026Z,601.00
2024-05-09T13:17:33.978Z,600.00
2024-05-09T13:18:34.057Z,594.00
2024-05-09T13:19:34.003Z,563.00
2024-05-09T13:22:05.569Z,523.00
2024-05-09T13:22:38.349Z,554.00
2024-05-09T13:23:43.368Z,563.00
2024-05-09T13:24:38.457Z,556.00
2024-05-09T13:25:38.479Z,562.00
2024-05-09T13:26:38.364Z,568.00
2024-05-09T13:27:38.429Z,575.00
2024-05-09T13:35:31.520Z,484.00
2024-05-09T13:36:04.510Z,558.00
2024-05-09T13:37:04.502Z,595.00
2024-05-09T13:38:05.159Z,641.00
2024-05-09T13:39:04.523Z,763.00
2024-05-09T13:40:07.078Z,900.00
2024-05-09T13:41:04.497Z,560.00
2024-05-09T13:42:04.485Z,575.00
2024-05-09T13:43:11.778Z,600.00
2024-05-09T13:44:11.727Z,600.00
2024-05-09T13:45:11.792Z,600.00
2024-05-09T13:46:11.764Z,600.00
2024-05-09T13:47:11.764Z,600.00
2024-05-09T13:48:11.932Z,599.00
2024-05-09T13:49:12.809Z,603.00
2024-05-09T13:50:20.126Z,600.00
2024-05-09T13:51:12.739Z,597.00
2024-05-09T13:52:11.800Z,573.00
2024-05-09T13:53:11.777Z,551.00
2024-05-09T13:54:11.756Z,517.00
2024-05-09T13:55:11.822Z,498.00
2024-05-09T13:56:11.752Z,507.00
2024-05-09T13:57:11.745Z,533.00
2024-05-09T13:58:11.856Z,579.00
2024-05-09T13:59:11.765Z,613.00
2024-05-09T14:00:22.252Z,612.00
2024-05-09T14:01:12.875Z,607.00
2024-05-09T14:02:11.847Z,608.00
2024-05-09T14:03:11.887Z,582.00
2024-05-09T14:04:11.876Z,588.00
2024-05-09T14:05:11.968Z,561.00
2024-05-09T14:06:13.216Z,595.00
2024-05-09T14:07:11.816Z,604.00
2024-05-09T14:08:11.765Z,598.00
2024-05-09T14:19:17.937Z,502.00
2024-05-09T14:19:50.927Z,605.00
2024-05-09T14:20:50.915Z,647.00
2024-05-09T14:21:50.985Z,770.00
2024-05-09T14:22:50.940Z,923.00
2024-05-09T14:23:50.917Z,1078.00
2024-05-09T14:24:50.994Z,1125.00
2024-05-09T14:25:52.327Z,1065.00
2024-05-09T14:26:50.915Z,941.00
2024-05-09T14:27:50.969Z,799.00
2024-05-09T14:28:50.928Z,705.00
2024-05-09T14:32:26.716Z,578.00
2024-05-09T14:32:59.705Z,654.00
2024-05-09T14:33:59.763Z,670.00
2024-05-09T14:34:59.696Z,709.00
2024-05-09T14:35:59.645Z,712.00
2024-05-09T14:36:59.637Z,711.00
2024-05-09T14:37:59.631Z,667.00
2024-05-09T14:38:59.619Z,641.00
2024-05-09T14:39:59.736Z,629.00
2024-05-09T14:49:01.663Z,455.00
2024-05-09T14:49:30.075Z,626.00
2024-05-09T14:50:35.930Z,657.00
2024-05-09T14:51:31.159Z,634.00
2024-05-09T15:02:36.243Z,598.00
2024-05-09T15:03:09.234Z,628.00
2024-05-09T15:04:09.351Z,689.00
2024-05-09T15:05:09.366Z,870.00
2024-05-09T15:06:09.400Z,1075.00
2024-05-09T15:07:11.325Z,1315.00
2024-05-09T15:08:09.241Z,634.00
2024-05-09T15:09:09.259Z,670.00
2024-05-09T15:10:16.572Z,770.00
2024-05-09T15:11:10.316Z,630.00
2024-05-09T15:12:09.214Z,655.00
2024-05-09T15:13:11.344Z,740.00
2024-05-09T15:14:09.233Z,628.00
2024-05-09T15:15:09.229Z,647.00
2024-05-09T15:16:09.264Z,666.00
2024-05-09T15:17:09.256Z,722.00
2024-05-09T15:18:09.380Z,800.00
2024-05-09T15:19:09.322Z,747.00
2024-05-09T15:20:09.871Z,714.00
2024-05-09T15:24:58.557Z,597.00
2024-05-09T15:25:29.038Z,731.00
2024-05-09T15:26:28.892Z,791.00
2024-05-09T15:27:28.942Z,887.00
2024-05-09T15:28:28.946Z,997.00
2024-05-09T15:29:28.905Z,1088.00
2024-05-09T15:30:31.997Z,1145.00
2024-05-09T15:31:29.103Z,1090.00
2024-05-09T15:32:29.132Z,1004.00
2024-05-09T15:33:28.945Z,939.00
2024-05-09T15:34:28.958Z,880.00
2024-05-09T15:35:28.919Z,820.00
2024-05-09T15:36:28.962Z,813.00
2024-05-09T15:37:28.909Z,819.00
2024-05-09T15:38:28.905Z,783.00
2024-05-09T15:39:28.933Z,750.00
2024-05-09T15:40:36.043Z,746.00
2024-05-09T15:41:29.912Z,747.00
2024-05-09T15:42:28.970Z,757.00
2024-05-09T15:43:29.033Z,765.00
2024-05-09T15:44:28.924Z,755.00
2024-05-09T15:45:28.994Z,762.00
2024-05-09T15:46:29.016Z,748.00
2024-05-09T15:47:28.959Z,713.00
2024-05-09T15:48:29.055Z,694.00
2024-05-09T15:49:29.055Z,657.00
2024-05-09T15:50:36.727Z,651.00
2024-05-09T15:51:30.116Z,652.00
2024-05-09T15:52:28.912Z,655.00
2024-05-09T15:53:28.917Z,664.00
2024-05-09T15:54:29.002Z,666.00
2024-05-09T15:55:28.925Z,676.00
2024-05-09T15:56:28.927Z,700.00
2024-05-09T15:57:28.942Z,699.00
2024-05-09T15:58:28.954Z,657.00
2024-05-09T15:59:28.924Z,648.00
2024-05-09T16:00:36.780Z,639.00
2024-05-09T16:01:30.046Z,639.00
2024-05-09T16:02:29.098Z,639.00
2024-05-09T16:03:29.015Z,640.00
2024-05-09T16:04:29.109Z,650.00
2024-05-09T16:05:29.044Z,644.00
2024-05-09T16:06:29.001Z,639.00
2024-05-09T16:07:28.933Z,635.00
2024-05-09T16:08:28.930Z,634.00
2024-05-09T16:09:28.973Z,620.00
2024-05-09T16:10:32.495Z,619.00
2024-05-09T16:11:29.980Z,619.00
2024-05-09T16:12:28.959Z,620.00
2024-05-09T16:13:29.007Z,626.00
2024-05-09T16:14:28.949Z,644.00
2024-05-09T16:15:29.095Z,663.00
2024-05-09T16:16:28.994Z,674.00
2024-05-09T16:17:28.995Z,702.00
2024-05-09T16:18:28.987Z,692.00
2024-05-09T16:19:28.968Z,714.00
2024-05-09T16:20:37.216Z,744.00
2024-05-09T16:30:31.855Z,545.00
2024-05-09T16:31:00.458Z,751.00
2024-05-09T16:34:35.182Z,744.00
2024-05-09T16:35:08.122Z,755.00
2024-05-09T16:36:08.132Z,828.00
2024-05-09T16:37:08.200Z,919.00
2024-05-09T16:38:08.132Z,1021.00
2024-05-09T16:46:01.309Z,610.00
2024-05-09T16:46:34.244Z,754.00
2024-05-09T16:47:34.416Z,836.00
2024-05-09T16:50:08.389Z,744.00
2024-05-09T16:50:38.605Z,752.00
2024-05-09T16:51:38.680Z,817.00
2024-05-09T16:52:38.589Z,917.00
2024-05-09T16:53:38.595Z,1022.00
2024-05-09T16:54:38.634Z,1108.00
2024-05-09T16:55:38.859Z,1110.00
2024-05-09T16:56:38.605Z,1065.00
2024-05-09T16:57:38.624Z,997.00
2024-05-09T17:02:18.947Z,714.00
2024-05-09T17:02:51.706Z,989.00
2024-05-09T17:03:51.910Z,1032.00
2024-05-09T17:04:51.643Z,1083.00
2024-05-09T17:05:51.883Z,1125.00
2024-05-09T17:06:51.691Z,1165.00
2024-05-09T17:07:51.648Z,1139.00
2024-05-09T17:08:51.760Z,1078.00
2024-05-09T17:09:51.642Z,1031.00
2024-05-09T17:10:51.931Z,992.00
2024-05-09T17:11:51.674Z,967.00
2024-05-09T17:12:51.662Z,962.00
2024-05-09T17:13:51.648Z,914.00
2024-05-09T17:14:51.647Z,897.00
2024-05-09T17:15:51.735Z,857.00
2024-05-09T17:16:51.671Z,840.00
2024-05-09T17:17:51.684Z,839.00
2024-05-09T17:18:51.690Z,816.00
2024-05-09T17:19:51.658Z,786.00
2024-05-09T17:23:28.284Z,664.00
2024-05-09T17:24:00.368Z,810.00
2024-05-09T17:25:00.551Z,849.00
2024-05-09T17:26:00.348Z,900.00
2024-05-09T17:27:00.372Z,927.00
2024-05-09T17:28:00.447Z,926.00
2024-05-09T17:29:00.363Z,944.00
2024-05-09T17:30:00.348Z,911.00
2024-05-09T17:31:00.385Z,915.00
2024-05-09T17:32:00.390Z,930.00
2024-05-09T17:33:00.427Z,913.00
2024-05-09T17:34:00.500Z,924.00
2024-05-09T17:40:49.149Z,642.00
2024-05-09T17:41:22.097Z,908.00
2024-05-09T17:42:22.088Z,977.00
2024-05-09T17:43:22.340Z,1075.00
2024-05-09T17:44:36.656Z,1216.00
2024-05-09T17:45:22.286Z,912.00
2024-05-09T17:46:22.451Z,963.00
2024-05-09T17:47:22.451Z,1071.00
2024-05-09T17:51:00.613Z,899.00
2024-05-09T17:51:31.318Z,909.00
2024-05-09T17:52:31.305Z,974.00
2024-05-09T17:53:31.278Z,1040.00
2024-05-09T17:54:31.379Z,1119.00
2024-05-09T17:55:31.457Z,1286.00
2024-05-09T17:56:31.375Z,1356.00
2024-05-09T17:57:31.423Z,1271.00
2024-05-09T17:58:31.550Z,1144.00
2024-05-09T17:59:31.517Z,1069.00
2024-05-09T18:00:38.529Z,1115.00
2024-05-09T18:01:32.700Z,1117.00
2024-05-09T18:07:16.266Z,1073.00
2024-05-09T18:07:48.998Z,1124.00
2024-05-09T18:08:48.991Z,1181.00
2024-05-09T18:09:49.081Z,1248.00
2024-05-09T18:10:50.157Z,1275.00
2024-05-09T18:11:49.048Z,1122.00
2024-05-09T18:12:49.046Z,1126.00
2024-05-09T18:13:56.299Z,600.00
2024-05-09T18:14:56.285Z,600.00
2024-05-09T18:15:56.291Z,600.00
2024-05-09T18:16:56.279Z,600.00
2024-05-09T18:20:40.503Z,600.00
2024-05-09T18:21:05.992Z,600.00
2024-05-09T18:53:03.075Z,600.00
2024-05-09T18:53:36.025Z,600.00
2024-05-09T18:54:36.075Z,600.00
2024-05-09T18:55:36.094Z,600.00
2024-05-09T18:56:36.032Z,600.00